Details From LGKR - IOANNIS KAPODISTRIAS INTL
To LGSK - Skiathos Alexandros Papadiamantis
Flight Number -
Tags generated
Created
Modified
Stats Distance 172 nm / 318 km
Max Altitude 15,100 ft / 4,602 m
Waypoints 4
Social Downloads 0
Likes 0
Share VATSIM

Download

Looking for another format? Having issues loading an existing format? Contact us
Advertisement - Login to hide

Notes

Basic altitude profile: - Ascent Rate: 2500ft/min - Ascent Speed: 250kts - Cruise Altitude: 35000ft - Cruise Speed: 420kts - Descent Rate: 1500ft/min - Descent Speed: 250kts Options: - Use NATs: yes - Use PACOTS: yes - Use low airways: yes - Use high airways: yes

Route

LGKR YNN V651 AGH LGSK

ID Type Via Altitude Latitude Longitude Leg Dist Tot Dist Heading (true) Name
O LGKR APT - 0 ft / 0 m 39.60178˚ 19.91191˚ - 0 nm - IOANNIS KAPODISTRIAS INTL
YNN VOR - 15,100 ft / 4,602 m 39.70139˚ 20.82000˚ 42 nm 42 nm 82° / 82° IOANNINA VOR-DME
AGH VOR V651 (AWY-LO) 9,500 ft / 2,896 m 39.21622˚ 22.79192˚ 95 nm 138 nm 107° / 108° ANCHIALOS VOR-DME
O LGSK APT - 0 ft / 0 m 39.17710˚ 23.50368˚ 33 nm 171 nm 94° / 94° Skiathos Alexandros Papadiamantis

Altitude Profile

Advertisement - Login to hide

Weather


0- 5 10 15 20 25 30 35+ Temperature / ° C

Clouds and Precipitation
Forecast for 2017-12-15 18:00 UTC. Updated an hour ago

Ground ~20,000 ft ~40,000 ft Winds

LGKR

Details ICAO LGKR (CFU)
Name IOANNIS KAPODISTRIAS INTL
Region Greece
Timezone Europe/Athens (UTC+2.0)
Stats Elevation 6 ft / 2 m (AMSL)
Location 39.601779° 19.911908°
Runways 1
Magnetic Variation 4.098° E

METAR

LGKR 151750Z 16014KT 9999 SCT015TCU BKN020 16/14 Q1012 NOSIG

Decode

TAF

TAF LGKR 151700Z 1518/1618 15018KT 9999 SCT015 SCT020 BKN080 PROB30 TEMPO 1520/1618 5000 RA SCT010 BKN020 BKN080 PROB30 TEMPO 1606/1612 4000 TSRA SCT010 FEW018CB BKN020 BECMG 1610/1612 24018KT

Decode

Departure Runways

ID Width Length Bearing (true) Bearing (mag) Surface Threshold Offset Overrun Length
17 148 ft / 45 m 7,815 ft / 2,382 m 168.81° 164.71° Asphalt 1,348 ft / 411 m 0 ft / 0 m
35 148 ft / 45 m 7,815 ft / 2,382 m 348.81° 344.71° Asphalt 213 ft / 65 m 0 ft / 0 m

LGSK

Details ICAO LGSK (JSI)
Name Skiathos Alexandros Papadiamantis
Region Greece
Timezone Europe/Athens (UTC+2.0)
Stats Elevation 54 ft / 16 m (AMSL)
Location 39.177100° 23.503677°
Runways 1
Magnetic Variation 4.554° E

METAR

LGSK 151750Z 00000KT CAVOK 11/09 Q1012

Decode

TAF

Not found

Destination Runways

ID Width Length Bearing (true) Bearing (mag) Surface Threshold Offset Overrun Length
02 98 ft / 30 m 5,535 ft / 1,687 m 18.96° 14.41° Asphalt 190 ft / 58 m 0 ft / 0 m
20 98 ft / 30 m 5,535 ft / 1,687 m 198.97° 194.42° Asphalt 0 ft / 0 m 242 ft / 74 m

Popular Alternatives